Time;durP1;ratioP1;P1;durP2;ratioP2;P2;SDS_P1;SDS_P2;PMS_P1;PMS_P2;Temp;Humidity;BMP_temperature;BMP_pressure;BME280_temperature;BME280_humidity;BME280_pressure;Samples;Min_cycle;Max_cycle;Signal;HPM_P1;HPM_P2
2024/04/09 00:02:07;;;;;;;;;;;;;;;16.79;53.77;101209.59;5456830;26;1246;-51
2024/04/09 00:04:33;;;;;;;;;;;;;;;16.52;54.29;101202.25;5456444;26;1171;-51
2024/04/09 00:06:58;;;;;;;;;;;;;;;16.30;54.41;101205.09;5457087;26;1346;-50
2024/04/09 00:09:29;;;;;;;;;;;;;;;16.21;54.41;101205.56;5456682;26;1283;-54
2024/04/09 00:11:54;;;;;;;;;;;;;;;16.12;54.75;101200.81;5435200;26;1038;-53
2024/04/09 00:14:20;;;;;;;;;;;;;;;17.58;52.06;101196.84;5456820;26;1830;-53
2024/04/09 00:16:47;;;;;;;;;;;;;;;17.38;52.38;101195.66;5456734;26;1262;-54
2024/04/09 00:19:14;;;;;;;;;;;;;;;16.74;53.92;101199.41;5455941;26;1246;-55
2024/04/09 00:21:39;;;;;;;;;;;;;;;16.47;54.41;101191.25;5456365;26;1222;-52
2024/04/09 00:24:06;;;;;;;;;;;;;;;16.35;54.13;101200.47;5456437;26;1182;-50
2024/04/09 00:26:31;;;;;;;;;;;;;;;16.16;54.35;101190.97;5456021;26;1218;-56
2024/04/09 00:28:57;;;;;;;;;;;;;;;16.81;53.99;101186.28;5456600;26;1170;-56
2024/04/09 00:31:24;;;;;;;;;;;;;;;18.01;50.64;101189.25;5459803;26;1269;-56
2024/04/09 00:33:51;;;;;;;;;;;;;;;17.06;52.98;101185.63;5459379;26;1834;-54
2024/04/09 00:36:17;;;;;;;;;;;;;;;16.66;53.74;101184.28;5459150;26;1042;-52
2024/04/09 00:38:46;;;;;;;;;;;;;;;16.39;54.46;101176.91;5459611;26;1243;-51
2024/04/09 00:41:18;;;;;;;;;;;;;;;16.30;54.06;101173.00;5459825;26;1183;-56
2024/04/09 00:43:44;;;;;;;;;;;;;;;17.33;52.58;101184.63;5459663;26;1280;-53
2024/04/09 00:46:13;;;;;;;;;;;;;;;17.57;51.86;101189.66;5459773;26;1280;-56
2024/04/09 00:48:38;;;;;;;;;;;;;;;16.84;53.59;101202.22;5458641;26;1058;-56
2024/04/09 00:51:07;;;;;;;;;;;;;;;16.57;53.82;101189.41;5459686;26;1210;-53
2024/04/09 00:53:32;;;;;;;;;;;;;;;16.32;54.23;101184.53;5459644;26;1859;-53
2024/04/09 00:55:58;;;;;;;;;;;;;;;16.87;53.74;101204.44;5457468;26;1162;-52
2024/04/09 00:58:24;;;;;;;;;;;;;;;17.92;51.12;101196.38;5459255;26;1215;-51
2024/04/09 01:00:49;;;;;;;;;;;;;;;16.97;53.03;101192.72;5459422;26;1030;-55
2024/04/09 01:03:15;;;;;;;;;;;;;;;16.62;53.78;101196.88;5459221;26;1140;-53
2024/04/09 01:05:40;;;;;;;;;;;;;;;16.40;53.90;101197.78;5457615;26;1183;-53
2024/04/09 01:08:06;;;;;;;;;;;;;;;17.55;51.91;101191.88;5459039;26;1245;-53
2024/04/09 01:10:31;;;;;;;;;;;;;;;17.54;51.54;101185.53;5459060;26;1187;-53
2024/04/09 01:13:00;;;;;;;;;;;;;;;16.90;53.25;101192.13;5459047;26;1817;-52
2024/04/09 01:15:25;;;;;;;;;;;;;;;16.60;53.73;101199.84;5459374;26;1353;-54
2024/04/09 01:17:51;;;;;;;;;;;;;;;16.45;53.85;101198.91;5450120;26;1223;-54
2024/04/09 01:20:16;;;;;;;;;;;;;;;16.28;54.12;101193.56;5459170;26;1163;-53
2024/04/09 01:22:42;;;;;;;;;;;;;;;16.67;53.88;101199.63;5459378;26;1297;-53
2024/04/09 01:25:10;;;;;;;;;;;;;;;17.99;50.78;101199.69;5458882;26;1051;-54
2024/04/09 01:27:41;;;;;;;;;;;;;;;17.13;52.70;101195.56;5458906;26;1361;-54
2024/04/09 01:30:08;;;;;;;;;;;;;;;16.71;53.40;101184.28;5459917;26;1198;-56
2024/04/09 01:32:33;;;;;;;;;;;;;;;16.54;53.77;101194.59;5458468;26;1865;-52
2024/04/09 01:35:06;;;;;;;;;;;;;;;16.26;54.16;101191.09;5458905;26;1174;-54
2024/04/09 01:37:34;;;;;;;;;;;;;;;16.76;53.82;101187.06;5458411;26;1345;-51
2024/04/09 01:40:00;;;;;;;;;;;;;;;18.00;50.60;101190.34;5458323;26;1269;-53
2024/04/09 01:42:25;;;;;;;;;;;;;;;17.04;52.89;101187.81;5457828;26;1197;-52
2024/04/09 01:44:51;;;;;;;;;;;;;;;16.64;53.81;101182.88;5458554;26;1253;-51
2024/04/09 01:47:17;;;;;;;;;;;;;;;16.59;53.73;101184.50;5458674;26;1178;-51
2024/04/09 01:49:42;;;;;;;;;;;;;;;17.43;52.36;101190.19;5458043;26;1065;-53
2024/04/09 01:52:11;;;;;;;;;;;;;;;18.53;49.68;101181.03;5483328;26;1166;-54
2024/04/09 01:54:37;;;;;;;;;;;;;;;17.74;51.24;101167.44;5458716;26;1829;-55
2024/04/09 01:57:02;;;;;;;;;;;;;;;17.19;52.42;101173.31;5458971;26;1188;-54
2024/04/09 01:59:30;;;;;;;;;;;;;;;18.08;50.98;101167.81;5458525;26;1305;-53
2024/04/09 02:01:55;;;;;;;;;;;;;;;18.21;50.14;101174.69;5457550;26;1144;-51
2024/04/09 02:04:21;;;;;;;;;;;;;;;17.44;52.01;101164.34;5458697;26;1163;-52
2024/04/09 02:06:46;;;;;;;;;;;;;;;17.08;52.87;101166.97;5458647;26;1361;-53
2024/04/09 02:09:12;;;;;;;;;;;;;;;18.47;50.02;101161.75;5458041;26;1194;-51
2024/04/09 02:11:38;;;;;;;;;;;;;;;17.79;51.36;101164.72;5458769;26;1143;-53
2024/04/09 02:14:04;;;;;;;;;;;;;;;17.30;52.37;101171.44;5458646;26;1817;-48
2024/04/09 02:16:30;;;;;;;;;;;;;;;17.10;52.87;101166.69;5457901;26;1246;-54
2024/04/09 02:18:55;;;;;;;;;;;;;;;18.54;49.74;101168.91;5458286;26;1195;-54
2024/04/09 02:21:22;;;;;;;;;;;;;;;17.77;51.46;101170.47;5457885;26;1207;-52
2024/04/09 02:23:48;;;;;;;;;;;;;;;17.31;52.29;101167.59;5458085;26;1187;-51
2024/04/09 02:26:14;;;;;;;;;;;;;;;17.53;52.28;101169.31;5458017;26;1186;-52
2024/04/09 02:28:39;;;;;;;;;;;;;;;18.84;48.91;101167.19;5458490;26;1171;-53
2024/04/09 02:31:05;;;;;;;;;;;;;;;17.89;51.13;101158.41;5457319;26;1136;-50
2024/04/09 02:33:31;;;;;;;;;;;;;;;17.42;52.10;101154.72;5458526;26;1828;-53
2024/04/09 02:35:57;;;;;;;;;;;;;;;17.47;52.36;101156.66;5458033;26;1261;-51
2024/04/09 02:38:23;;;;;;;;;;;;;;;18.34;49.91;101153.22;5457481;26;1075;-53
2024/04/09 02:40:49;;;;;;;;;;;;;;;17.51;52.19;101157.78;5457804;26;1321;-51
2024/04/09 02:43:14;;;;;;;;;;;;;;;17.23;52.67;101157.13;5457988;26;2056;-53
2024/04/09 02:45:40;;;;;;;;;;;;;;;17.08;53.03;101160.63;5457297;26;1222;-51
2024/04/09 02:48:06;;;;;;;;;;;;;;;18.65;49.58;101162.28;5458013;26;1217;-51
2024/04/09 02:50:31;;;;;;;;;;;;;;;17.88;51.40;101157.59;5457370;26;1040;-49
2024/04/09 02:52:57;;;;;;;;;;;;;;;17.42;52.27;101160.22;5457165;26;1859;-52
2024/04/09 02:55:22;;;;;;;;;;;;;;;17.16;52.60;101159.28;5457849;26;1277;-49
2024/04/09 02:57:48;;;;;;;;;;;;;;;18.12;50.96;101166.16;5458076;26;1280;-50
2024/04/09 03:00:20;;;;;;;;;;;;;;;18.19;50.37;101168.63;5457186;26;1234;-51
2024/04/09 03:02:50;;;;;;;;;;;;;;;17.56;51.78;101171.53;5458074;26;1175;-52
2024/04/09 03:05:15;;;;;;;;;;;;;;;17.23;52.86;101168.13;5457624;26;1183;-49
2024/04/09 03:07:42;;;;;;;;;;;;;;;18.66;49.39;101177.69;5457776;26;1338;-47
2024/04/09 03:10:10;;;;;;;;;;;;;;;17.76;51.50;101174.31;5457921;26;1329;-49
2024/04/09 03:12:35;;;;;;;;;;;;;;;17.43;52.26;101184.69;5457150;26;1857;-51
2024/04/09 03:15:01;;;;;;;;;;;;;;;17.37;52.61;101199.50;5457572;26;1170;-51
2024/04/09 03:17:26;;;;;;;;;;;;;;;18.53;49.46;101195.59;5457754;26;1159;-53
2024/04/09 03:19:52;;;;;;;;;;;;;;;17.69;51.66;101195.75;5457375;26;1277;-48
2024/04/09 03:22:18;;;;;;;;;;;;;;;17.36;52.17;101195.13;5477757;26;1365;-52
2024/04/09 03:24:46;;;;;;;;;;;;;;;18.44;49.92;101191.78;5469657;26;1273;-54
2024/04/09 03:27:12;;;;;;;;;;;;;;;17.69;51.76;101192.19;5482558;26;1614;-48
2024/04/09 03:29:37;;;;;;;;;;;;;;;17.36;52.08;101192.38;5492923;26;1481;-50
2024/04/09 03:32:03;;;;;;;;;;;;;;;17.22;52.49;101193.94;5467434;26;1190;-54
2024/04/09 03:34:28;;;;;;;;;;;;;;;17.40;52.05;101189.91;5457582;26;1830;-52
2024/04/09 03:36:54;;;;;;;;;;;;;;;17.25;52.18;101193.41;5456920;26;1167;-53
2024/04/09 03:39:19;;;;;;;;;;;;;;;17.21;52.28;101197.81;5447138;26;1436;-51
2024/04/09 03:41:45;;;;;;;;;;;;;;;17.04;52.62;101198.81;5456898;26;1179;-57
2024/04/09 03:44:10;;;;;;;;;;;;;;;16.81;53.01;101204.69;5456914;26;1277;-55
2024/04/09 03:46:36;;;;;;;;;;;;;;;16.60;53.15;101204.53;5457127;26;1255;-51
2024/04/09 03:49:03;;;;;;;;;;;;;;;16.43;53.44;101201.94;5456847;26;1225;-50
2024/04/09 03:51:29;;;;;;;;;;;;;;;16.37;53.49;101212.03;5457270;26;1197;-53
2024/04/09 03:53:55;;;;;;;;;;;;;;;16.21;53.52;101204.75;5456709;26;1832;-50
2024/04/09 03:56:21;;;;;;;;;;;;;;;17.06;53.25;101202.09;5456928;26;1266;-54
2024/04/09 03:58:48;;;;;;;;;;;;;;;17.61;52.24;101213.63;5457308;26;1175;-50
2024/04/09 04:01:13;;;;;;;;;;;;;;;16.90;53.74;101211.34;5454589;26;1205;-50
2024/04/09 04:03:44;;;;;;;;;;;;;;;16.63;54.15;101208.66;5460698;26;1221;-49
2024/04/09 04:06:09;;;;;;;;;;;;;;;16.45;54.63;101218.94;5456658;26;1230;-48
2024/04/09 04:08:36;;;;;;;;;;;;;;;17.31;52.67;101213.50;5457169;26;1149;-52
2024/04/09 04:11:02;;;;;;;;;;;;;;;16.49;53.11;101211.84;5456452;26;1171;-50
2024/04/09 04:13:29;;;;;;;;;;;;;;;16.28;51.61;101213.59;5449863;26;1857;-52
2024/04/09 04:16:05;;;;;;;;;;;;;;;17.47;52.82;101211.66;5456350;26;1282;-54
2024/04/09 04:18:31;;;;;;;;;;;;;;;16.62;52.58;101216.09;5457335;26;1198;-52
2024/04/09 04:20:57;;;;;;;;;;;;;;;16.32;51.37;101214.72;5440956;26;1151;-52
2024/04/09 04:23:23;;;;;;;;;;;;;;;16.16;50.37;101211.03;5432596;26;1514;-53
2024/04/09 04:26:04;;;;;;;;;;;;;;;16.76;51.10;101225.53;5425705;26;1274;-52
2024/04/09 04:28:30;;;;;;;;;;;;;;;16.58;52.31;101218.53;5426901;26;1198;-51
2024/04/09 04:30:55;;;;;;;;;;;;;;;16.34;51.03;101229.03;5419617;26;1287;-51
2024/04/09 04:33:21;;;;;;;;;;;;;;;16.21;49.97;101218.47;5424947;26;1834;-52
2024/04/09 04:35:46;;;;;;;;;;;;;;;16.69;50.34;101224.06;5427560;26;1369;-50
2024/04/09 04:38:12;;;;;;;;;;;;;;;17.50;51.15;101222.09;5434216;26;1271;-55
2024/04/09 04:40:37;;;;;;;;;;;;;;;16.56;51.71;101217.13;5429231;26;1398;-53
2024/04/09 04:43:03;;;;;;;;;;;;;;;16.40;50.45;101232.66;5421379;26;1322;-54
2024/04/09 04:45:31;;;;;;;;;;;;;;;16.99;51.15;101234.50;5422282;26;1287;-52
2024/04/09 04:47:59;;;;;;;;;;;;;;;16.94;51.46;101231.69;5431123;26;1472;-49
2024/04/09 04:50:25;;;;;;;;;;;;;;;16.49;50.57;101225.56;5423702;26;1357;-52
2024/04/09 04:52:50;;;;;;;;;;;;;;;16.31;49.70;101223.22;5423700;26;1830;-52
2024/04/09 04:55:16;;;;;;;;;;;;;;;17.01;50.39;101223.22;5438749;26;1145;-55
2024/04/09 04:57:41;;;;;;;;;;;;;;;17.10;51.27;101219.72;5459183;26;1246;-53
2024/04/09 05:00:09;;;;;;;;;;;;;;;16.56;50.81;101217.13;5444959;26;1178;-54
2024/04/09 05:02:37;;;;;;;;;;;;;;;16.36;49.70;101224.09;5449091;26;1391;-52
2024/04/09 05:05:04;;;;;;;;;;;;;;;16.89;50.36;101217.94;5419412;26;1387;-53
2024/04/09 05:07:32;;;;;;;;;;;;;;;17.24;50.74;101213.75;5429101;26;1524;-50
2024/04/09 05:09:58;;;;;;;;;;;;;;;16.60;50.38;101227.31;5426555;26;1513;-54
2024/04/09 05:12:24;;;;;;;;;;;;;;;16.39;49.32;101229.06;5419603;26;1421;-49
2024/04/09 05:14:49;;;;;;;;;;;;;;;16.34;48.28;101223.53;5428611;26;1847;-51
2024/04/09 05:17:15;;;;;;;;;;;;;;;16.23;47.55;101219.06;5455108;26;1274;-49
2024/04/09 05:19:41;;;;;;;;;;;;;;;16.69;48.57;101219.44;5441336;26;1233;-51
2024/04/09 05:22:06;;;;;;;;;;;;;;;16.85;49.68;101217.59;5434645;26;1458;-52
2024/04/09 05:24:33;;;;;;;;;;;;;;;16.82;50.13;101218.16;5399250;26;1437;-47
2024/04/09 05:26:59;;;;;;;;;;;;;;;18.23;49.38;101216.53;5432979;26;1407;-54
2024/04/09 05:29:24;;;;;;;;;;;;;;;17.05;50.62;101221.59;5439843;26;1388;-55
2024/04/09 05:31:50;;;;;;;;;;;;;;;16.83;49.47;101219.81;5465577;26;1184;-55
2024/04/09 05:34:16;;;;;;;;;;;;;;;17.71;50.10;101218.34;5458753;26;1829;-54
2024/04/09 05:36:41;;;;;;;;;;;;;;;16.88;50.40;101211.59;5457415;26;1367;-50
2024/04/09 05:39:08;;;;;;;;;;;;;;;16.67;49.37;101216.09;5449675;26;1350;-49
2024/04/09 05:41:33;;;;;;;;;;;;;;;16.50;48.45;101212.69;5429292;26;2943;-47
2024/04/09 05:43:59;;;;;;;;;;;;;;;16.41;47.59;101224.16;5427417;26;1401;-50
2024/04/09 05:46:24;;;;;;;;;;;;;;;16.35;47.19;101218.88;5434280;26;1399;-48
2024/04/09 05:48:50;;;;;;;;;;;;;;;16.35;47.78;101225.19;5436253;26;1296;-50
2024/04/09 05:51:15;;;;;;;;;;;;;;;17.09;49.30;101223.53;5424074;26;1106;-48
2024/04/09 05:53:41;;;;;;;;;;;;;;;16.57;49.21;101221.53;5458306;26;1828;-49
2024/04/09 05:56:06;;;;;;;;;;;;;;;16.36;48.47;101218.59;5453169;26;1226;-51
2024/04/09 05:58:32;;;;;;;;;;;;;;;16.20;48.57;101217.66;5439703;26;1271;-50
2024/04/09 06:00:58;;;;;;;;;;;;;;;17.35;49.12;101229.19;5424246;26;1307;-49
2024/04/09 06:03:23;;;;;;;;;;;;;;;16.61;49.62;101225.41;5435086;26;1425;-50
2024/04/09 06:05:51;;;;;;;;;;;;;;;17.12;49.76;101227.69;5428796;26;1260;-49
2024/04/09 06:08:17;;;;;;;;;;;;;;;16.96;50.38;101235.03;5471608;26;1253;-52
2024/04/09 06:10:43;;;;;;;;;;;;;;;16.71;49.77;101230.97;5469279;26;2646;-49
2024/04/09 06:13:10;;;;;;;;;;;;;;;18.03;48.97;101233.84;5457901;26;1834;-53
2024/04/09 06:15:35;;;;;;;;;;;;;;;17.02;50.11;101231.19;5457073;26;1062;-54
2024/04/09 06:18:01;;;;;;;;;;;;;;;16.69;49.52;101235.91;5457263;26;1170;-53
2024/04/09 06:20:26;;;;;;;;;;;;;;;16.67;48.46;101235.31;5456707;26;1151;-55
2024/04/09 06:22:52;;;;;;;;;;;;;;;17.32;49.31;101232.47;5458493;26;1143;-51
2024/04/09 06:25:17;;;;;;;;;;;;;;;17.12;49.98;101229.63;5457524;26;1190;-49
2024/04/09 06:27:43;;;;;;;;;;;;;;;16.65;49.66;101229.28;5448751;26;1404;-53
2024/04/09 06:30:08;;;;;;;;;;;;;;;16.61;48.64;101228.16;5457646;26;1115;-49
2024/04/09 06:32:34;;;;;;;;;;;;;;;16.38;48.32;101219.19;5432909;26;1306;-48
2024/04/09 06:35:00;;;;;;;;;;;;;;;17.34;48.79;101226.72;5442030;26;1867;-48
2024/04/09 06:37:25;;;;;;;;;;;;;;;16.75;49.15;101223.84;5441958;26;1330;-50
2024/04/09 06:39:51;;;;;;;;;;;;;;;16.48;48.67;101234.06;5456577;26;1119;-51
2024/04/09 06:42:16;;;;;;;;;;;;;;;17.26;48.91;101222.53;5464449;26;3012;-51
2024/04/09 06:44:42;;;;;;;;;;;;;;;17.03;49.36;101224.63;5457095;26;1329;-51
2024/04/09 06:47:08;;;;;;;;;;;;;;;16.74;48.88;101224.13;5457387;26;1123;-50
2024/04/09 06:49:34;;;;;;;;;;;;;;;16.79;48.88;101224.16;5457100;26;1253;-50
2024/04/09 06:52:09;;;;;;;;;;;;;;;17.74;48.86;101225.19;5456542;26;1042;-47
2024/04/09 06:54:34;;;;;;;;;;;;;;;16.96;49.41;101229.53;5457933;26;1833;-51
2024/04/09 06:57:00;;;;;;;;;;;;;;;16.63;49.07;101217.72;5457154;26;1110;-46
2024/04/09 06:59:25;;;;;;;;;;;;;;;16.72;48.56;101226.31;5457299;26;1155;-53
2024/04/09 07:01:51;;;;;;;;;;;;;;;17.27;49.50;101225.00;5457013;26;1285;-47
2024/04/09 07:04:17;;;;;;;;;;;;;;;16.82;49.18;101220.88;5454370;26;1045;-47
2024/04/09 07:06:43;;;;;;;;;;;;;;;16.67;48.40;101224.34;5456554;26;1140;-50
2024/04/09 07:09:09;;;;;;;;;;;;;;;17.64;48.80;101223.25;5465754;26;1214;-50
2024/04/09 07:11:34;;;;;;;;;;;;;;;17.06;49.20;101217.78;5453090;26;2319;-52
2024/04/09 07:14:00;;;;;;;;;;;;;;;16.76;48.88;101214.53;5465967;26;1857;-46
2024/04/09 07:16:25;;;;;;;;;;;;;;;16.64;48.22;101215.81;5471546;26;1170;-47
2024/04/09 07:18:51;;;;;;;;;;;;;;;17.66;48.62;101215.56;5455766;26;1265;-51
2024/04/09 07:21:17;;;;;;;;;;;;;;;16.85;49.42;101211.28;5456826;26;1319;-52
2024/04/09 07:23:43;;;;;;;;;;;;;;;16.66;48.86;101208.97;5448120;26;1155;-53
2024/04/09 07:26:08;;;;;;;;;;;;;;;16.66;47.98;101214.47;5458596;26;1500;-53
2024/04/09 07:28:34;;;;;;;;;;;;;;;16.51;47.75;101201.44;5452368;26;1060;-50
2024/04/09 07:31:03;;;;;;;;;;;;;;;17.61;48.39;101210.03;5454526;26;1204;-48
2024/04/09 07:33:29;;;;;;;;;;;;;;;16.95;48.83;101208.63;5455724;26;1828;-50
2024/04/09 07:35:57;;;;;;;;;;;;;;;16.68;48.46;101212.28;5455994;26;1270;-49
2024/04/09 07:38:23;;;;;;;;;;;;;;;16.55;48.17;101212.72;5422802;26;1305;-52
2024/04/09 07:40:48;;;;;;;;;;;;;;;16.83;48.31;101214.31;5480760;26;2160;-50
2024/04/09 07:43:14;;;;;;;;;;;;;;;17.34;48.67;101211.03;5464086;26;1087;-54
2024/04/09 07:45:39;;;;;;;;;;;;;;;16.88;48.87;101210.75;5455946;26;1155;-50
2024/04/09 07:48:05;;;;;;;;;;;;;;;17.93;48.21;101207.13;5456440;26;1223;-51
2024/04/09 07:50:31;;;;;;;;;;;;;;;17.17;49.30;101203.00;5455655;26;1286;-51
2024/04/09 07:52:57;;;;;;;;;;;;;;;16.88;48.95;101210.75;5455629;26;1933;-51
2024/04/09 07:55:22;;;;;;;;;;;;;;;16.63;48.58;101209.47;5456470;26;1233;-52
2024/04/09 07:57:48;;;;;;;;;;;;;;;16.73;47.96;101204.09;5459450;26;1227;-48
2024/04/09 08:00:14;;;;;;;;;;;;;;;17.41;48.84;101205.31;5456617;26;1162;-50
2024/04/09 08:02:42;;;;;;;;;;;;;;;16.77;49.35;101209.84;5447490;26;1361;-50
2024/04/09 08:05:12;;;;;;;;;;;;;;;16.74;48.48;101208.47;5441888;26;1169;-51
2024/04/09 08:07:39;;;;;;;;;;;;;;;16.65;47.79;101204.56;5462166;26;1194;-50
2024/04/09 08:10:13;;;;;;;;;;;;;;;16.55;47.62;101201.72;5446845;26;2140;-50
2024/04/09 08:12:46;;;;;;;;;;;;;;;16.60;47.51;101199.03;5444548;26;1836;-51
2024/04/09 08:15:12;;;;;;;;;;;;;;;17.49;48.38;101203.94;5454959;26;1411;-48
2024/04/09 08:17:37;;;;;;;;;;;;;;;16.86;49.09;101202.78;5450370;26;1188;-48
2024/04/09 08:20:07;;;;;;;;;;;;;;;16.68;48.54;101198.53;5455853;26;1174;-54
2024/04/09 08:22:36;;;;;;;;;;;;;;;16.62;48.07;101191.38;5452071;26;1210;-51
2024/04/09 08:25:02;;;;;;;;;;;;;;;16.99;48.30;101201.50;5433342;26;1424;-54
2024/04/09 08:27:28;;;;;;;;;;;;;;;17.30;48.65;101198.94;5437387;26;1378;-49
2024/04/09 08:29:53;;;;;;;;;;;;;;;16.77;49.10;101199.72;5455745;26;1306;-49
2024/04/09 08:32:19;;;;;;;;;;;;;;;16.60;48.52;101188.88;5455064;26;1165;-50
2024/04/09 08:34:44;;;;;;;;;;;;;;;16.54;48.06;101192.69;5433165;26;1860;-50
2024/04/09 08:37:10;;;;;;;;;;;;;;;16.53;47.85;101187.47;5423672;26;1319;-52
2024/04/09 08:39:36;;;;;;;;;;;;;;;17.54;48.22;101185.53;5423211;26;1369;-52
2024/04/09 08:42:02;;;;;;;;;;;;;;;16.82;49.01;101184.38;5458273;26;2058;-55
2024/04/09 08:44:28;;;;;;;;;;;;;;;16.56;48.70;101179.53;5425926;26;1793;-49
2024/04/09 08:46:54;;;;;;;;;;;;;;;16.53;48.28;101187.47;5427804;26;1291;-50
2024/04/09 08:49:19;;;;;;;;;;;;;;;16.42;47.72;101170.06;5460638;26;1150;-51
2024/04/09 08:51:45;;;;;;;;;;;;;;;17.54;48.16;101177.28;5450160;26;1207;-56
2024/04/09 08:54:10;;;;;;;;;;;;;;;17.06;49.07;101177.38;5455613;26;1865;-57
2024/04/09 08:56:36;;;;;;;;;;;;;;;16.73;48.96;101171.13;5436846;26;1207;-53
2024/04/09 08:59:04;;;;;;;;;;;;;;;16.64;48.33;101178.19;5455955;26;1230;-52
2024/04/09 09:01:29;;;;;;;;;;;;;;;17.52;48.38;101178.69;5467399;26;1163;-51
2024/04/09 09:03:55;;;;;;;;;;;;;;;16.72;49.28;101183.19;5457194;26;1060;-50
2024/04/09 09:06:20;;;;;;;;;;;;;;;16.69;48.22;101181.00;5459264;26;1264;-50
2024/04/09 09:08:46;;;;;;;;;;;;;;;17.92;47.99;101174.38;5458915;26;1163;-53
2024/04/09 09:11:19;;;;;;;;;;;;;;;17.12;49.12;101166.41;5475295;26;2218;-55
2024/04/09 09:13:45;;;;;;;;;;;;;;;16.84;48.80;101176.69;5430559;26;1829;-51
2024/04/09 09:16:10;;;;;;;;;;;;;;;16.69;48.43;101169.16;5426921;26;1302;-50
2024/04/09 09:18:36;;;;;;;;;;;;;;;16.52;47.99;101166.56;5424653;26;1372;-49
2024/04/09 09:21:02;;;;;;;;;;;;;;;17.39;48.40;101169.84;5432255;26;1441;-50
2024/04/09 09:23:28;;;;;;;;;;;;;;;17.04;48.94;101160.34;5453325;26;1394;-55
2024/04/09 09:25:55;;;;;;;;;;;;;;;16.70;48.77;101163.41;5477501;26;1367;-52
2024/04/09 09:28:25;;;;;;;;;;;;;;;16.63;48.20;101162.81;5457772;26;1474;-50
2024/04/09 09:30:53;;;;;;;;;;;;;;;16.97;48.05;101159.75;5453753;26;1242;-51
2024/04/09 09:33:19;;;;;;;;;;;;;;;17.47;48.39;101151.16;5428038;26;1868;-52
2024/04/09 09:35:48;;;;;;;;;;;;;;;16.95;48.68;101153.69;5471327;26;1197;-51
2024/04/09 09:38:17;;;;;;;;;;;;;;;16.90;47.76;101153.66;5438718;26;1337;-50
2024/04/09 09:40:44;;;;;;;;;;;;;;;16.66;47.75;101147.72;5456888;26;2099;-49
2024/04/09 09:43:10;;;;;;;;;;;;;;;18.03;47.70;101148.53;5410871;26;1273;-50
2024/04/09 09:45:35;;;;;;;;;;;;;;;17.05;49.25;101144.69;5467256;26;1238;-52
2024/04/09 09:48:01;;;;;;;;;;;;;;;16.88;48.67;101150.34;5421925;26;1499;-51
2024/04/09 09:50:27;;;;;;;;;;;;;;;17.07;48.49;101143.31;5448472;26;1449;-51
2024/04/09 09:52:52;;;;;;;;;;;;;;;17.36;48.62;101134.66;5490351;26;1829;-51
2024/04/09 09:55:18;;;;;;;;;;;;;;;16.89;48.99;101138.28;5440368;26;1208;-51
2024/04/09 09:57:44;;;;;;;;;;;;;;;16.75;48.50;101127.75;5451370;26;1213;-49
2024/04/09 10:00:10;;;;;;;;;;;;;;;16.69;47.88;101130.72;5421795;26;1199;-52
2024/04/09 10:02:36;;;;;;;;;;;;;;;16.58;47.52;101121.63;5479553;26;1194;-48
2024/04/09 10:05:02;;;;;;;;;;;;;;;16.52;47.15;101125.41;5438532;26;1124;-47
2024/04/09 10:07:27;;;;;;;;;;;;;;;16.54;46.84;101123.22;5450758;26;1238;-51
2024/04/09 10:09:53;;;;;;;;;;;;;;;17.24;47.61;101117.56;5466329;26;1217;-49
2024/04/09 10:12:21;;;;;;;;;;;;;;;16.93;48.63;101115.50;5454130;26;2382;-50
2024/04/09 10:15:08;;;;;;;;;;;;;;;16.60;48.57;101125.72;5435225;26;1860;-49
2024/04/09 10:17:49;;;;;;;;;;;;;;;16.62;47.68;101120.00;5455585;26;1237;-55
2024/04/09 10:20:18;;;;;;;;;;;;;;;17.44;48.40;101119.53;5444691;26;1446;-54
2024/04/09 10:22:44;;;;;;;;;;;;;;;16.89;48.76;101116.31;5456598;26;1282;-51
2024/04/09 10:25:16;;;;;;;;;;;;;;;16.65;48.29;101105.72;5455695;26;1127;-52
2024/04/09 10:27:41;;;;;;;;;;;;;;;16.57;47.79;101115.28;5456893;26;1344;-54
2024/04/09 10:30:13;;;;;;;;;;;;;;;16.46;47.22;101119.06;5449125;26;1103;-48
2024/04/09 10:32:38;;;;;;;;;;;;;;;16.56;46.78;101110.06;5469442;26;1288;-53
2024/04/09 10:35:13;;;;;;;;;;;;;;;16.82;47.43;101101.97;5425368;26;1849;-52
2024/04/09 10:37:40;;;;;;;;;;;;;;;17.21;48.38;101104.38;5457010;26;1245;-53
2024/04/09 10:40:06;;;;;;;;;;;;;;;16.76;48.41;101093.69;5435814;26;2143;-47
2024/04/09 10:42:31;;;;;;;;;;;;;;;16.49;48.33;101093.81;5454189;26;1257;-51
2024/04/09 10:44:57;;;;;;;;;;;;;;;16.52;47.42;101103.44;5460290;26;1176;-52
2024/04/09 10:47:23;;;;;;;;;;;;;;;16.43;47.15;101083.91;5430647;26;1165;-51
2024/04/09 10:49:48;;;;;;;;;;;;;;;16.71;47.41;101093.66;5465092;26;1194;-51
2024/04/09 10:52:14;;;;;;;;;;;;;;;17.07;48.19;101088.38;5411338;26;1297;-52
2024/04/09 10:54:39;;;;;;;;;;;;;;;16.55;48.37;101086.44;5438876;26;1826;-51
2024/04/09 10:57:05;;;;;;;;;;;;;;;16.52;47.77;101081.47;5467775;26;1455;-49
2024/04/09 10:59:31;;;;;;;;;;;;;;;16.56;47.46;101077.09;5436219;26;1214;-49
2024/04/09 11:01:57;;;;;;;;;;;;;;;17.76;47.76;101082.75;5425970;26;1272;-54
2024/04/09 11:07:44;;;;;;;;;;;;;;;16.58;48.36;101059.28;5433902;26;1199;-52
2024/04/09 11:10:13;;;;;;;;;;;;;;;16.61;47.42;101066.16;5430945;26;2617;-49
2024/04/09 11:16:04;;;;;;;;;;;;;;;16.72;48.55;101061.56;5442651;26;1312;-50
2024/04/09 11:18:30;;;;;;;;;;;;;;;16.64;47.90;101057.38;5437151;26;1117;-49
2024/04/09 11:20:56;;;;;;;;;;;;;;;17.63;48.07;101053.88;5456689;26;1160;-51
2024/04/09 11:23:22;;;;;;;;;;;;;;;16.83;48.75;101026.69;5456356;26;1124;-53
2024/04/09 11:25:48;;;;;;;;;;;;;;;16.84;47.99;101042.09;5456371;26;1142;-49
2024/04/09 11:28:14;;;;;;;;;;;;;;;16.62;47.65;101034.03;5455910;26;1587;-50
2024/04/09 11:30:46;;;;;;;;;;;;;;;16.56;47.25;101027.69;5456032;26;1250;-52
2024/04/09 11:33:12;;;;;;;;;;;;;;;17.77;47.74;101035.72;5449904;26;1837;-52
2024/04/09 11:35:38;;;;;;;;;;;;;;;16.98;48.85;101036.97;5427154;26;1210;-49
2024/04/09 11:38:03;;;;;;;;;;;;;;;16.79;48.26;101020.94;5433826;26;1219;-52
2024/04/09 11:40:30;;;;;;;;;;;;;;;16.56;47.93;101019.47;5460302;26;2286;-52
2024/04/09 11:42:56;;;;;;;;;;;;;;;16.72;47.71;101032.16;5456654;26;1255;-50
2024/04/09 11:45:31;;;;;;;;;;;;;;;17.23;48.60;101030.72;5456014;26;1290;-54
2024/04/09 11:47:56;;;;;;;;;;;;;;;16.80;48.36;101019.81;5459862;26;1328;-51
2024/04/09 11:50:23;;;;;;;;;;;;;;;16.70;47.57;101020.59;5433267;26;1301;-51
2024/04/09 11:52:48;;;;;;;;;;;;;;;16.73;47.73;101020.09;5448959;26;1863;-49
2024/04/09 11:55:14;;;;;;;;;;;;;;;17.28;48.57;101017.78;5458236;26;1131;-51
2024/04/09 11:57:43;;;;;;;;;;;;;;;16.85;48.50;101013.53;5455020;26;1154;-50
2024/04/09 12:00:14;;;;;;;;;;;;;;;16.65;48.04;101008.78;5454728;26;1243;-51
2024/04/09 12:02:40;;;;;;;;;;;;;;;17.54;48.03;101009.56;5456053;26;1206;-54
2024/04/09 12:05:06;;;;;;;;;;;;;;;16.90;48.51;101005.34;5455566;26;1304;-50
2024/04/09 12:07:31;;;;;;;;;;;;;;;17.85;48.02;100998.56;5455834;26;1187;-51
2024/04/09 12:09:57;;;;;;;;;;;;;;;17.51;49.04;101004.63;5456856;26;2737;-46
2024/04/09 12:12:22;;;;;;;;;;;;;;;17.06;48.84;100996.03;5424501;26;1224;-50
2024/04/09 12:14:48;;;;;;;;;;;;;;;17.02;48.09;101002.34;5433708;26;1836;-51
2024/04/09 12:17:14;;;;;;;;;;;;;;;16.87;47.55;100994.88;5436323;26;1338;-50
2024/04/09 12:19:40;;;;;;;;;;;;;;;16.72;47.28;100984.69;5441766;26;1163;-50
2024/04/09 12:22:06;;;;;;;;;;;;;;;16.58;47.02;100987.09;5455776;26;1188;-49
2024/04/09 12:24:31;;;;;;;;;;;;;;;16.53;46.96;100990.63;5455811;26;1460;-54
2024/04/09 12:27:00;;;;;;;;;;;;;;;17.41;47.82;100988.94;5454883;26;1222;-50
2024/04/09 12:29:27;;;;;;;;;;;;;;;17.05;48.45;100986.13;5454816;26;1299;-48
2024/04/09 12:31:53;;;;;;;;;;;;;;;16.76;48.26;100977.56;5455460;26;1131;-48
2024/04/09 12:34:18;;;;;;;;;;;;;;;16.57;47.82;100977.19;5455574;26;1860;-47
2024/04/09 12:36:44;;;;;;;;;;;;;;;16.48;47.33;100978.78;5455356;26;1301;-47
2024/04/09 12:39:09;;;;;;;;;;;;;;;16.30;47.29;100972.69;5438852;26;1206;-51
2024/04/09 12:41:35;;;;;;;;;;;;;;;17.30;47.57;100967.22;5438348;26;2425;-46
2024/04/09 12:44:01;;;;;;;;;;;;;;;17.05;48.64;100969.66;5477825;26;1276;-48
2024/04/09 12:46:27;;;;;;;;;;;;;;;16.77;48.21;100974.53;5455468;26;1593;-51
2024/04/09 12:48:52;;;;;;;;;;;;;;;17.86;48.20;100966.38;5449644;26;1456;-50
2024/04/09 12:51:18;;;;;;;;;;;;;;;17.04;49.08;100967.19;5454957;26;1217;-49